Time;durP1;ratioP1;P1;durP2;ratioP2;P2;SDS_P1;SDS_P2;PMS_P1;PMS_P2;Temp;Humidity;BMP_temperature;BMP_pressure;BME280_temperature;BME280_humidity;BME280_pressure;Samples;Min_cycle;Max_cycle;Signal;HPM_P1;HPM_P2
2022/04/08 00:01:02;;;;;;;11.52;5.47;;;;;;;6.59;55.49;99995.41;5023823;28;20045;-60
2022/04/08 00:03:34;;;;;;;12.52;5.15;;;;;;;6.66;55.46;99995.41;5022591;28;20069;-59
2022/04/08 00:06:05;;;;;;;12.05;6.20;;;;;;;6.55;54.96;100004.97;5023514;28;20126;-58
2022/04/08 00:08:36;;;;;;;13.60;4.90;;;;;;;6.31;54.36;99941.03;5023064;28;20060;-58
2022/04/08 00:11:06;;;;;;;15.40;7.00;;;;;;;6.48;53.31;100004.13;5023601;28;20053;-59
2022/04/08 00:13:37;;;;;;;12.70;6.07;;;;;;;5.55;50.81;99955.91;5018935;28;20079;-59
2022/04/08 00:16:09;;;;;;;9.52;5.82;;;;;;;5.49;48.56;100007.75;5022460;28;20236;-55
2022/04/08 00:18:41;;;;;;;5.03;2.60;;;;;;;5.18;41.63;100012.88;5022067;28;20303;-57
2022/04/08 00:21:12;;;;;;;6.97;2.55;;;;;;;5.46;42.71;100025.88;5022407;28;20057;-58
2022/04/08 00:23:43;;;;;;;8.65;2.40;;;;;;;5.54;42.48;100011.19;5024191;28;20278;-58
2022/04/08 00:26:14;;;;;;;4.80;2.05;;;;;;;5.02;38.90;100012.84;5022862;28;20065;-58
2022/04/08 00:28:45;;;;;;;5.30;1.80;;;;;;;4.46;39.95;100024.75;5024016;28;20042;-58
2022/04/08 00:31:16;;;;;;;3.38;2.20;;;;;;;4.18;41.64;100029.78;5022882;28;20054;-56
2022/04/08 00:33:49;;;;;;;6.13;2.58;;;;;;;4.09;43.54;100029.72;5022789;28;20069;-58
2022/04/08 00:36:20;;;;;;;3.08;1.90;;;;;;;4.09;41.98;100021.97;5021899;28;20053;-58
2022/04/08 00:38:50;;;;;;;4.30;1.90;;;;;;;4.30;40.83;100023.81;5017855;28;20062;-56
2022/04/08 00:41:21;;;;;;;7.03;2.05;;;;;;;4.14;43.28;100025.44;5020704;28;20064;-57
2022/04/08 00:43:51;;;;;;;5.88;2.00;;;;;;;4.17;43.25;100027.16;5015823;28;20064;-58
2022/04/08 00:46:22;;;;;;;5.72;2.50;;;;;;;4.39;43.65;100034.19;5022377;28;20295;-58
2022/04/08 00:48:55;;;;;;;6.03;2.08;;;;;;;4.37;43.78;100024.69;5023127;28;20084;-57
2022/04/08 00:51:26;;;;;;;7.05;2.88;;;;;;;4.22;43.14;100031.53;5022736;28;20085;-56
2022/04/08 00:53:58;;;;;;;5.07;1.92;;;;;;;3.80;39.89;100017.47;5022058;28;20367;-53
2022/04/08 00:56:31;;;;;;;4.68;2.25;;;;;;;4.20;41.45;100024.63;5022938;28;20118;-54
2022/04/08 00:59:02;;;;;;;7.88;2.42;;;;;;;4.10;39.92;100026.28;5022782;28;20292;-54
2022/04/08 01:01:33;;;;;;;4.38;2.13;;;;;;;3.87;39.09;100023.56;5022353;28;20049;-53
2022/04/08 01:04:07;;;;;;;4.13;1.90;;;;;;;4.30;38.76;100019.50;5022513;28;20107;-53
2022/04/08 01:06:38;;;;;;;4.00;2.20;;;;;;;4.59;41.32;100026.53;5022866;28;20053;-54
2022/04/08 01:09:08;;;;;;;5.13;1.90;;;;;;;4.59;38.39;100020.47;5022644;28;20391;-56
2022/04/08 01:11:39;;;;;;;4.20;1.92;;;;;;;4.79;39.20;100023.16;5025964;28;20306;-55
2022/04/08 01:14:11;;;;;;;5.28;1.83;;;;;;;4.84;37.43;100016.25;5025731;28;20336;-57
2022/04/08 01:16:42;;;;;;;6.28;1.88;;;;;;;4.92;36.64;100012.84;5027368;28;20061;-53
2022/04/08 01:19:14;;;;;;;5.63;2.47;;;;;;;5.47;38.63;99999.09;5025817;28;20065;-58
2022/04/08 01:21:45;;;;;;;3.05;1.73;;;;;;;5.70;35.67;99995.63;5025458;28;20072;-57
2022/04/08 01:24:17;;;;;;;5.30;1.80;;;;;;;5.27;35.39;100011.19;5025582;28;20066;-51
2022/04/08 01:26:49;;;;;;;5.18;1.85;;;;;;;5.17;36.57;100000.81;5025616;28;20100;-55
2022/04/08 01:29:20;;;;;;;6.57;2.05;;;;;;;5.18;37.34;100001.66;5025951;28;20053;-54
2022/04/08 01:31:51;;;;;;;4.50;1.88;;;;;;;5.38;37.85;100004.28;5026429;28;20432;-52
2022/04/08 01:34:22;;;;;;;5.88;2.30;;;;;;;5.60;36.05;99995.63;5025018;28;20061;-54
2022/04/08 01:36:53;;;;;;;4.15;1.90;;;;;;;5.70;36.90;99990.47;5026728;28;20058;-55
2022/04/08 01:39:23;;;;;;;3.83;2.25;;;;;;;5.93;36.22;99988.69;5026657;28;20050;-58
2022/04/08 01:41:56;;;;;;;5.05;2.20;;;;;;;5.92;36.32;99981.78;5026248;28;20113;-57
2022/04/08 01:44:26;;;;;;;6.97;2.58;;;;;;;5.70;34.42;99998.22;5026288;28;20045;-54
2022/04/08 01:46:57;;;;;;;4.07;1.85;;;;;;;5.40;32.92;99992.19;5025995;28;20053;-56
2022/04/08 01:49:28;;;;;;;7.05;1.90;;;;;;;4.71;32.69;99990.34;5026324;28;20089;-54
2022/04/08 01:51:59;;;;;;;4.05;2.45;;;;;;;4.50;33.34;99970.44;5026129;28;20770;-53
2022/04/08 01:54:29;;;;;;;4.13;1.95;;;;;;;4.86;32.83;99978.28;5026317;28;20060;-56
2022/04/08 01:57:02;;;;;;;8.75;2.13;;;;;;;4.87;36.09;99982.63;5025126;28;20184;-56
2022/04/08 01:59:32;;;;;;;3.03;1.65;;;;;;;5.33;31.95;99980.09;5025876;28;20117;-55
2022/04/08 02:02:03;;;;;;;5.38;1.55;;;;;;;5.24;31.83;99980.06;5025876;28;20117;-56
2022/04/08 02:04:35;;;;;;;3.60;1.90;;;;;;;5.22;32.17;99974.03;5025692;28;20129;-57
2022/04/08 02:07:06;;;;;;;6.15;2.00;;;;;;;5.17;31.06;99974.91;5025616;28;20240;-56
2022/04/08 02:09:37;;;;;;;3.03;1.65;;;;;;;4.53;31.00;99979.94;5026109;28;20054;-54
2022/04/08 02:12:11;;;;;;;2.90;1.80;;;;;;;4.67;32.81;99973.09;5025155;28;20077;-56
2022/04/08 02:14:41;;;;;;;3.60;2.25;;;;;;;4.60;32.21;99966.16;5026093;28;20061;-57
2022/04/08 02:17:12;;;;;;;4.88;1.77;;;;;;;4.73;29.56;99967.91;5025318;28;20384;-56
2022/04/08 02:19:43;;;;;;;3.08;1.70;;;;;;;4.70;30.40;99961.88;5025415;28;20136;-53
2022/04/08 02:22:14;;;;;;;4.57;1.90;;;;;;;4.74;30.10;99959.31;5025013;28;20050;-57
2022/04/08 02:24:46;;;;;;;2.63;2.00;;;;;;;4.68;30.67;99969.63;5025731;28;20091;-56
2022/04/08 02:27:22;;;;;;;4.43;1.80;;;;;;;4.61;30.38;99986.00;5025554;28;20077;-55
2022/04/08 02:29:52;;;;;;;3.25;1.48;;;;;;;4.79;30.93;99980.00;5025429;28;20046;-56
2022/04/08 02:32:23;;;;;;;4.38;1.88;;;;;;;5.01;32.89;99962.78;5025720;28;20344;-57
2022/04/08 02:34:54;;;;;;;4.97;1.80;;;;;;;5.19;30.12;99970.59;5025326;28;20061;-57
2022/04/08 02:37:25;;;;;;;4.03;2.13;;;;;;;5.07;32.09;99973.16;5025415;28;20221;-57
2022/04/08 02:39:55;;;;;;;3.67;1.70;;;;;;;5.33;32.88;99978.34;5025560;28;20054;-55
2022/04/08 02:42:30;;;;;;;2.42;1.88;;;;;;;5.53;32.67;99973.16;5024988;28;20414;-54
2022/04/08 02:45:01;;;;;;;8.63;3.80;;;;;;;5.35;32.35;99973.19;5024899;28;20117;-54
2022/04/08 02:47:31;;;;;;;3.47;2.00;;;;;;;5.40;30.71;99981.81;5025149;28;20467;-57
2022/04/08 02:50:02;;;;;;;40.85;21.42;;;;;;;5.52;29.65;99980.97;5024792;28;20069;-56
2022/04/08 02:52:32;;;;;;;7.55;2.95;;;;;;;4.76;28.73;99967.91;5024971;28;20053;-57
2022/04/08 02:55:03;;;;;;;3.30;2.47;;;;;;;4.71;31.65;99972.22;5025019;28;20065;-53
2022/04/08 02:57:44;;;;;;;3.95;1.90;;;;;;;4.66;32.09;99966.16;5024790;28;20080;-56
2022/04/08 03:00:16;;;;;;;2.92;1.83;;;;;;;4.82;30.72;99966.19;5024902;28;20116;-54
2022/04/08 03:02:47;;;;;;;6.47;3.42;;;;;;;4.64;29.47;99947.22;5024896;28;20083;-56
2022/04/08 03:05:18;;;;;;;10.25;5.57;;;;;;;4.86;29.03;99975.72;5022818;28;20348;-55
2022/04/08 03:07:49;;;;;;;10.00;5.00;;;;;;;4.80;28.95;99967.94;5023785;28;20475;-55
2022/04/08 03:10:19;;;;;;;8.00;2.80;;;;;;;5.07;31.28;99983.53;5023911;28;20140;-56
2022/04/08 03:12:52;;;;;;;66.10;35.70;;;;;;;5.15;32.30;99980.94;5022789;28;20053;-58
2022/04/08 03:15:23;;;;;;;55.95;30.88;;;;;;;4.97;29.87;99981.78;5023734;28;20057;-58
2022/04/08 03:17:54;;;;;;;21.48;12.10;;;;;;;4.95;31.81;99978.31;5024046;28;20051;-57
2022/04/08 03:20:24;;;;;;;18.65;10.43;;;;;;;5.24;32.38;99990.44;5024010;28;20053;-54
2022/04/08 03:22:55;;;;;;;6.63;2.00;;;;;;;5.52;32.35;99987.00;5024016;28;20068;-55
2022/04/08 03:25:26;;;;;;;7.72;4.60;;;;;;;5.52;29.78;99966.28;5024838;28;20049;-57
2022/04/08 03:27:58;;;;;;;14.20;6.30;;;;;;;5.38;32.87;99993.91;5024483;28;20437;-56
2022/04/08 03:30:31;;;;;;;6.63;2.58;;;;;;;5.41;31.14;99988.72;5024270;28;20041;-56
2022/04/08 03:33:02;;;;;;;21.10;3.45;;;;;;;5.52;32.92;99981.81;5023301;28;20240;-55
2022/04/08 03:35:32;;;;;;;7.18;2.40;;;;;;;5.75;34.16;99988.72;5023502;28;20239;-53
2022/04/08 03:38:04;;;;;;;6.53;2.45;;;;;;;5.45;33.40;99928.28;5023426;28;20104;-51
2022/04/08 03:40:36;;;;;;;4.72;3.00;;;;;;;5.73;33.36;99995.63;5023924;28;20061;-54
2022/04/08 03:43:09;;;;;;;6.72;2.70;;;;;;;5.72;35.03;99996.50;5023080;28;20351;-57
2022/04/08 03:45:40;;;;;;;4.80;2.67;;;;;;;5.75;33.50;99994.75;5023243;28;20077;-53
2022/04/08 03:48:11;;;;;;;4.80;2.28;;;;;;;5.74;33.90;99992.16;5022882;28;20045;-55
2022/04/08 03:50:41;;;;;;;7.15;2.47;;;;;;;5.87;33.79;99996.47;5024281;28;20057;-56
2022/04/08 03:53:12;;;;;;;3.25;2.35;;;;;;;5.88;33.48;100000.78;5024214;28;20201;-56
2022/04/08 03:55:43;;;;;;;5.15;2.00;;;;;;;5.99;33.94;99993.91;5024504;28;20056;-55
2022/04/08 03:58:15;;;;;;;5.88;2.20;;;;;;;6.00;33.22;99993.03;5024287;28;20051;-52
2022/04/08 04:00:46;;;;;;;3.75;2.05;;;;;;;5.86;33.44;99986.97;5024142;28;20408;-55
2022/04/08 04:03:16;;;;;;;3.72;2.17;;;;;;;6.01;33.95;99986.97;5024280;28;20060;-57
2022/04/08 04:05:47;;;;;;;6.43;2.60;;;;;;;5.98;31.08;99981.78;5023598;28;20128;-54
2022/04/08 04:08:19;;;;;;;2.88;2.22;;;;;;;5.94;32.68;99998.25;5023874;28;20078;-56
2022/04/08 04:10:50;;;;;;;3.20;2.20;;;;;;;5.85;31.84;99995.63;5024004;28;20168;-54
2022/04/08 04:13:22;;;;;;;6.32;2.17;;;;;;;5.81;32.25;99993.88;5023982;28;20064;-51
2022/04/08 04:15:52;;;;;;;8.07;3.08;;;;;;;5.63;30.06;99995.63;5024435;28;20242;-50
2022/04/08 04:18:23;;;;;;;5.25;1.90;;;;;;;5.47;30.86;99962.81;5023534;28;20084;-58
2022/04/08 04:20:54;;;;;;;2.75;1.92;;;;;;;5.67;32.06;100000.84;5023706;28;20446;-55
2022/04/08 04:23:24;;;;;;;4.30;2.40;;;;;;;5.89;33.69;99997.34;5024283;28;20290;-54
2022/04/08 04:25:55;;;;;;;3.22;2.05;;;;;;;5.92;34.56;99994.75;5022755;28;20053;-55
2022/04/08 04:28:30;;;;;;;4.75;2.03;;;;;;;5.99;33.99;99993.91;5024056;28;20061;-55
2022/04/08 04:31:03;;;;;;;4.82;2.00;;;;;;;6.12;34.10;99997.34;5023565;28;20052;-54
2022/04/08 04:33:34;;;;;;;2.67;1.80;;;;;;;5.99;32.89;99993.91;5023653;28;20304;-55
2022/04/08 04:36:04;;;;;;;5.95;2.22;;;;;;;6.03;33.61;99980.03;5022461;28;20112;-56
2022/04/08 04:38:35;;;;;;;3.45;2.20;;;;;;;5.98;32.59;99980.94;5023846;28;20069;-54
2022/04/08 04:41:06;;;;;;;4.80;2.30;;;;;;;5.95;33.57;99991.31;5024025;28;20052;-55
2022/04/08 04:43:38;;;;;;;6.30;2.13;;;;;;;5.92;33.80;99981.78;5023609;28;20114;-55
2022/04/08 04:46:09;;;;;;;5.88;2.00;;;;;;;5.75;33.16;99970.56;5027466;28;20224;-54
2022/04/08 04:48:39;;;;;;;4.35;2.10;;;;;;;5.75;33.74;99980.94;5027440;28;20095;-55
2022/04/08 04:51:13;;;;;;;3.47;2.00;;;;;;;5.69;32.70;99981.81;5027503;28;20053;-54
2022/04/08 04:53:44;;;;;;;5.20;2.42;;;;;;;5.76;34.06;99972.28;5027305;28;20483;-56
2022/04/08 04:56:14;;;;;;;5.38;2.10;;;;;;;5.66;32.60;99989.56;5026875;28;20056;-57
2022/04/08 04:58:46;;;;;;;7.80;2.10;;;;;;;5.65;34.10;99993.03;5026975;28;20076;-57
2022/04/08 05:01:17;;;;;;;4.85;2.22;;;;;;;5.62;33.69;99991.31;5026692;28;20057;-57
2022/04/08 05:03:48;;;;;;;3.55;2.03;;;;;;;5.47;32.84;99993.94;5027030;28;20049;-58
2022/04/08 05:06:18;;;;;;;3.95;1.80;;;;;;;5.45;31.56;100000.81;5026645;28;20548;-57
2022/04/08 05:08:54;;;;;;;2.45;1.83;;;;;;;5.58;32.11;99999.94;5027401;28;20085;-57
2022/04/08 05:11:25;;;;;;;7.75;1.80;;;;;;;5.53;31.93;99993.91;5026628;28;20046;-57
2022/04/08 05:13:57;;;;;;;3.53;2.05;;;;;;;5.19;33.17;99965.41;5026628;28;20074;-52
2022/04/08 05:16:28;;;;;;;8.10;2.63;;;;;;;5.45;33.75;100003.41;5027078;28;20048;-56
2022/04/08 05:18:59;;;;;;;5.78;2.30;;;;;;;5.59;33.63;100001.69;5027081;28;20103;-58
2022/04/08 05:21:30;;;;;;;4.75;2.10;;;;;;;5.59;32.82;100009.47;5026749;28;20053;-55
2022/04/08 05:24:01;;;;;;;3.58;2.25;;;;;;;5.65;34.59;100015.53;5026468;28;20057;-58
2022/04/08 05:26:32;;;;;;;5.20;2.10;;;;;;;5.69;33.06;100012.03;5026636;28;20060;-58
2022/04/08 05:29:04;;;;;;;3.35;2.20;;;;;;;5.69;33.91;100004.25;5026651;28;20613;-56
2022/04/08 05:31:34;;;;;;;6.93;2.00;;;;;;;5.69;34.24;100009.44;5026269;28;20117;-55
2022/04/08 05:34:05;;;;;;;5.63;2.45;;;;;;;5.56;33.65;100003.41;5026792;28;20348;-54
2022/04/08 05:36:36;;;;;;;8.95;2.17;;;;;;;5.34;34.19;99976.63;5026781;28;20347;-58
2022/04/08 05:39:07;;;;;;;6.82;2.20;;;;;;;5.39;34.73;100019.84;5026400;28;20050;-55
2022/04/08 05:41:38;;;;;;;6.13;2.42;;;;;;;5.42;36.42;100016.38;5026559;28;20351;-55
2022/04/08 05:44:10;;;;;;;5.07;2.00;;;;;;;5.50;35.79;100014.66;5026175;28;20073;-56
2022/04/08 05:46:41;;;;;;;7.28;3.63;;;;;;;5.55;36.48;100018.09;5025977;28;20057;-57
2022/04/08 05:49:12;;;;;;;4.47;1.95;;;;;;;5.48;35.74;100016.38;5025911;28;20271;-58
2022/04/08 05:51:43;;;;;;;3.15;1.90;;;;;;;5.38;35.26;100014.63;5026085;28;20125;-54
2022/04/08 05:54:14;;;;;;;8.32;2.28;;;;;;;5.23;35.22;99996.50;5024914;28;20080;-55
2022/04/08 05:56:45;;;;;;;5.53;2.10;;;;;;;5.26;36.10;100002.53;5021415;28;20088;-56
2022/04/08 05:59:17;;;;;;;3.85;1.90;;;;;;;5.04;34.99;99965.41;5025799;28;20049;-56
2022/04/08 06:01:48;;;;;;;9.63;2.50;;;;;;;5.27;36.03;100011.19;5026381;28;20049;-56
2022/04/08 06:04:20;;;;;;;3.53;1.65;;;;;;;5.21;34.44;100008.56;5026347;28;20504;-56
2022/04/08 06:06:51;;;;;;;4.32;2.20;;;;;;;5.17;35.00;100000.81;5026126;28;20405;-56
2022/04/08 06:09:22;;;;;;;7.75;2.58;;;;;;;5.29;36.98;100004.25;5025828;28;20071;-58
2022/04/08 06:11:52;;;;;;;4.85;2.20;;;;;;;5.25;36.13;99997.38;5026066;28;20120;-58
2022/04/08 06:14:26;;;;;;;5.68;2.05;;;;;;;5.11;35.35;99990.41;5025562;28;20053;-58
2022/04/08 06:16:56;;;;;;;4.97;2.10;;;;;;;5.15;35.24;100001.66;5026099;28;20225;-59
2022/04/08 06:19:27;;;;;;;2.65;1.70;;;;;;;5.11;35.24;100003.38;5025399;28;20080;-55
2022/04/08 06:21:59;;;;;;;6.53;2.50;;;;;;;4.62;34.79;99927.31;5025582;28;20046;-55
2022/04/08 06:24:29;;;;;;;4.20;2.58;;;;;;;4.95;35.81;99993.88;5044268;23;20057;-59
2022/04/08 06:27:00;;;;;;;4.22;2.15;;;;;;;5.02;35.18;99995.59;5024607;28;20156;-59
2022/04/08 06:29:32;;;;;;;8.63;2.20;;;;;;;4.99;35.33;99990.41;5025209;28;20048;-59
2022/04/08 06:32:03;;;;;;;13.82;2.70;;;;;;;4.90;37.43;99995.59;5025352;28;20117;-58
2022/04/08 06:34:34;;;;;;;3.78;1.92;;;;;;;4.78;36.90;99995.53;5025154;28;20474;-57
2022/04/08 06:37:05;;;;;;;2.92;1.85;;;;;;;4.45;34.85;99991.97;5025189;28;20137;-58
2022/04/08 06:39:36;;;;;;;2.90;1.80;;;;;;;4.05;36.44;100003.00;5025011;28;20053;-57
2022/04/08 06:42:07;;;;;;;7.13;1.98;;;;;;;3.91;38.53;99996.00;5024674;28;20092;-58
2022/04/08 06:44:39;;;;;;;8.00;2.03;;;;;;;3.86;37.58;99999.41;5024537;28;20049;-58
2022/04/08 06:47:10;;;;;;;12.70;2.65;;;;;;;3.81;38.55;100003.69;5024922;28;20124;-59
2022/04/08 06:49:44;;;;;;;8.82;2.70;;;;;;;3.81;39.08;100008.84;5024835;28;20367;-58
2022/04/08 06:52:15;;;;;;;5.13;2.53;;;;;;;3.87;39.70;100001.16;5024671;28;20088;-58
2022/04/08 06:54:46;;;;;;;17.48;2.58;;;;;;;3.76;40.24;100000.22;5023844;28;20236;-58
2022/04/08 06:57:16;;;;;;;3.35;2.40;;;;;;;3.80;40.20;100001.97;5024833;28;20091;-59
2022/04/08 06:59:49;;;;;;;33.05;2.88;;;;;;;3.74;41.04;100001.91;5024734;28;20114;-56
2022/04/08 07:02:19;;;;;;;26.65;2.97;;;;;;;3.71;41.26;100009.66;5024616;28;20046;-58
2022/04/08 07:04:51;;;;;;;10.63;2.03;;;;;;;3.67;41.41;100011.34;5024466;28;20084;-57
2022/04/08 07:07:22;;;;;;;7.03;1.90;;;;;;;3.64;40.57;100010.44;5023773;28;20058;-59
2022/04/08 07:09:54;;;;;;;17.92;2.97;;;;;;;3.63;40.52;100008.72;5024663;28;20071;-58
2022/04/08 07:12:25;;;;;;;11.05;2.58;;;;;;;3.65;41.27;100007.03;5023591;28;20369;-59
2022/04/08 07:14:58;;;;;;;5.63;2.40;;;;;;;3.74;41.49;100025.16;5024439;28;20045;-57
2022/04/08 07:17:30;;;;;;;7.43;2.30;;;;;;;3.78;40.80;100021.75;5024327;28;20255;-58
2022/04/08 07:20:18;;;;;;;2.67;2.08;;;;;;;3.86;41.34;100033.00;5019358;28;20309;-58
2022/04/08 07:22:50;;;;;;;11.00;4.03;;;;;;;3.92;41.23;100032.22;5025095;28;20260;-58
2022/04/08 07:25:20;;;;;;;13.50;3.90;;;;;;;3.78;40.80;100023.50;5024459;28;20311;-59
2022/04/08 07:27:52;;;;;;;4.90;2.83;;;;;;;3.76;42.68;100041.56;5023954;28;20056;-58
2022/04/08 07:30:25;;;;;;;6.88;2.60;;;;;;;3.74;41.67;100043.25;5024363;28;20145;-59
2022/04/08 07:32:56;;;;;;;3.83;2.50;;;;;;;3.82;42.54;100038.13;5024517;28;20182;-58
2022/04/08 07:35:27;;;;;;;11.98;3.05;;;;;;;3.98;42.10;100052.06;5024363;28;20251;-57
2022/04/08 07:37:58;;;;;;;4.80;2.50;;;;;;;4.03;41.95;100060.72;5024426;28;20303;-58
2022/04/08 07:40:29;;;;;;;5.28;3.25;;;;;;;3.87;42.74;100019.25;5024445;28;20054;-59
2022/04/08 07:43:00;;;;;;;6.72;3.50;;;;;;;4.24;42.22;100058.28;5024582;28;20077;-60
2022/04/08 07:45:32;;;;;;;8.43;3.03;;;;;;;4.23;42.23;100063.44;5024355;28;20061;-58
2022/04/08 07:48:03;;;;;;;5.55;2.90;;;;;;;4.21;42.02;100066.00;5024359;28;20423;-58
2022/04/08 07:50:37;;;;;;;13.27;2.70;;;;;;;4.10;41.35;100078.00;5024241;28;20326;-59
2022/04/08 07:53:07;;;;;;;4.47;2.35;;;;;;;3.93;41.75;100069.25;5024134;28;20076;-58
2022/04/08 07:55:39;;;;;;;9.05;2.78;;;;;;;3.81;42.67;100076.06;5024079;28;20057;-58
2022/04/08 07:58:09;;;;;;;3.38;2.00;;;;;;;3.74;41.90;100078.56;5024146;28;20046;-58
2022/04/08 08:00:42;;;;;;;5.25;3.03;;;;;;;3.72;42.72;100091.50;5023878;28;20061;-58
2022/04/08 08:03:15;;;;;;;14.20;3.15;;;;;;;3.66;43.44;100092.28;5024118;28;20243;-57
2022/04/08 08:05:45;;;;;;;20.40;10.20;;;;;;;3.59;42.63;100092.22;5023921;28;20335;-58
2022/04/08 08:08:16;;;;;;;15.73;5.32;;;;;;;3.51;42.80;100091.28;5024118;28;20066;-58
2022/04/08 08:10:49;;;;;;;24.63;5.07;;;;;;;3.45;43.38;100086.94;5023979;28;20065;-58
2022/04/08 08:13:20;;;;;;;6.90;3.25;;;;;;;3.53;43.86;100105.09;5024194;28;20434;-57
2022/04/08 08:15:54;;;;;;;15.23;3.03;;;;;;;3.41;43.20;100111.88;5021964;28;20231;-58
2022/04/08 08:18:25;;;;;;;4.95;2.47;;;;;;;3.28;42.83;100109.16;5023216;28;20385;-57
2022/04/08 08:20:56;;;;;;;15.88;2.88;;;;;;;3.17;42.90;100117.66;5027831;28;20076;-58
2022/04/08 08:23:27;;;;;;;8.95;3.50;;;;;;;3.14;43.44;100124.47;5027408;28;20061;-58
2022/04/08 08:25:57;;;;;;;16.98;4.00;;;;;;;3.07;43.43;100118.41;5027511;28;20046;-58
2022/04/08 08:28:36;;;;;;;;;;;;;;;2.92;43.22;100111.34;5028065;28;20266;-58
2022/04/08 08:31:08;;;;;;;;;;;;;;;2.84;44.01;100120.69;5028181;28;19917;-58
2022/04/08 08:33:40;;;;;;;9.13;4.55;;;;;;;2.76;43.84;100120.56;5027375;28;19987;-57
2022/04/08 08:36:11;;;;;;;7.90;4.13;;;;;;;2.68;44.29;100117.03;5027438;28;20163;-59
2022/04/08 08:38:41;;;;;;;5.53;3.40;;;;;;;2.72;44.29;100128.25;5027353;28;20061;-59
2022/04/08 08:41:12;;;;;;;7.97;3.63;;;;;;;2.61;43.68;100119.53;5026962;28;20108;-58
2022/04/08 08:43:43;;;;;;;36.13;6.72;;;;;;;2.47;43.42;100116.75;5027330;28;20078;-58
2022/04/08 08:46:16;;;;;;;15.43;6.07;;;;;;;2.40;43.47;100105.50;5027173;28;20099;-59
2022/04/08 08:48:48;;;;;;;9.15;3.67;;;;;;;2.35;43.29;100109.72;5027160;28;20129;-58
2022/04/08 08:51:20;;;;;;;13.50;3.00;;;;;;;2.28;43.76;100105.31;5027508;28;20296;-58
2022/04/08 08:53:50;;;;;;;18.77;4.10;;;;;;;2.27;43.89;100113.88;5027418;28;20061;-59
2022/04/08 08:56:21;;;;;;;9.98;4.22;;;;;;;2.28;44.66;100110.47;5027395;28;20310;-58
2022/04/08 08:58:52;;;;;;;4.43;2.80;;;;;;;2.34;45.84;100110.53;5026694;28;20088;-58
2022/04/08 09:01:24;;;;;;;3.78;2.15;;;;;;;2.27;46.01;100108.72;5025384;28;20068;-58
2022/04/08 09:03:55;;;;;;;7.55;2.10;;;;;;;2.16;46.31;100116.28;5026742;28;20100;-58
2022/04/08 09:06:26;;;;;;;14.68;2.92;;;;;;;2.05;46.94;100118.72;5026994;28;20150;-58
2022/04/08 09:08:58;;;;;;;11.27;3.63;;;;;;;1.91;46.05;100109.88;5026054;28;20063;-59
2022/04/08 09:11:29;;;;;;;10.00;3.67;;;;;;;1.94;47.22;100115.94;5027243;28;20083;-58
2022/04/08 09:14:03;;;;;;;4.10;2.20;;;;;;;1.97;46.74;100115.13;5026695;28;20060;-58
2022/04/08 09:16:41;;;;;;;26.67;2.95;;;;;;;2.12;46.89;100115.41;5026724;28;20350;-58
2022/04/08 09:19:12;;;;;;;8.00;3.42;;;;;;;2.15;46.49;100115.44;5027108;28;20059;-58
2022/04/08 09:21:53;;;;;;;5.30;2.92;;;;;;;1.98;46.42;100085.09;5026588;28;20064;-58
2022/04/08 09:24:24;;;;;;;3.95;2.50;;;;;;;2.30;46.80;100124.25;5026432;28;20252;-60
2022/04/08 09:26:56;;;;;;;4.75;2.35;;;;;;;2.20;46.71;100119.78;5026550;28;20052;-58
2022/04/08 09:29:27;;;;;;;5.00;2.30;;;;;;;2.08;45.77;100118.75;5026584;28;20053;-58
2022/04/08 09:32:19;;;;;;;7.80;2.67;;;;;;;1.95;44.34;100114.25;5025651;28;20045;-59
2022/04/08 09:34:53;;;;;;;3.63;2.40;;;;;;;1.86;44.03;100111.53;5026553;28;20054;-58
2022/04/08 09:37:24;;;;;;;12.05;3.50;;;;;;;1.78;44.02;100115.69;5026444;28;20366;-58
2022/04/08 09:39:56;;;;;;;11.75;4.20;;;;;;;1.73;43.83;100116.47;5026621;28;20053;-58
2022/04/08 09:42:42;;;;;;;14.65;6.05;;;;;;;1.66;43.95;100119.78;5026287;28;20129;-58
2022/04/08 09:45:14;;;;;;;18.60;8.50;;;;;;;1.49;43.83;100095.44;5026295;28;20061;-58
2022/04/08 09:47:46;;;;;;;14.20;8.10;;;;;;;1.56;43.62;100123.03;5025814;28;20059;-59
2022/04/08 09:50:17;;;;;;;15.85;6.38;;;;;;;1.47;44.55;100128.00;5026168;28;20050;-58
2022/04/08 09:52:48;;;;;;;12.18;4.50;;;;;;;1.34;45.68;100131.22;5025875;28;20402;-58
2022/04/08 09:55:19;;;;;;;11.38;3.67;;;;;;;1.23;45.85;100139.59;5025775;28;20042;-58
2022/04/08 09:57:54;;;;;;;5.10;3.40;;;;;;;1.24;46.42;100133.59;5026353;28;20204;-58
2022/04/08 10:00:26;;;;;;;19.85;2.95;;;;;;;1.14;46.46;100123.97;5024626;28;20244;-59
2022/04/08 10:03:00;;;;;;;12.88;3.28;;;;;;;1.14;46.83;100134.25;5024581;28;20109;-58
2022/04/08 10:05:31;;;;;;;11.18;3.28;;;;;;;1.14;47.29;100139.41;5025814;28;20053;-58
2022/04/08 10:08:02;;;;;;;11.95;3.83;;;;;;;1.13;46.98;100132.53;5025881;28;20050;-59
2022/04/08 10:10:42;;;;;;;7.72;3.17;;;;;;;0.83;46.25;100092.50;5025836;28;20099;-58
2022/04/08 10:13:21;;;;;;;;;;;;;;;1.12;47.65;100130.78;5026212;28;20049;-58
2022/04/08 10:16:04;;;;;;;7.05;3.30;;;;;;;1.13;48.19;100140.25;5025417;28;19917;-58
2022/04/08 10:18:38;;;;;;;52.28;4.95;;;;;;;1.18;49.18;100141.22;5025670;28;20330;-58
2022/04/08 10:21:10;;;;;;;12.43;3.00;;;;;;;1.18;47.99;100146.38;5025353;28;20089;-58
2022/04/08 10:23:42;;;;;;;33.33;4.10;;;;;;;1.24;48.52;100140.47;5024720;28;20068;-58
2022/04/08 10:26:20;;;;;;;35.88;4.35;;;;;;;1.21;48.21;100136.13;5025337;28;20120;-58
2022/04/08 10:28:52;;;;;;;9.43;2.95;;;;;;;1.17;47.06;100139.47;5025397;28;20171;-56
2022/04/08 10:31:24;;;;;;;4.70;2.55;;;;;;;1.14;47.54;100134.25;5025584;28;20119;-58
2022/04/08 10:33:59;;;;;;;8.20;2.90;;;;;;;1.15;46.88;100141.16;5024954;28;20409;-58
2022/04/08 10:36:37;;;;;;;9.63;3.00;;;;;;;1.14;47.00;100139.41;5025338;28;20072;-59
2022/04/08 10:39:15;;;;;;;6.90;3.15;;;;;;;1.14;47.97;100139.41;5025075;28;20061;-58
2022/04/08 10:41:51;;;;;;;5.38;3.10;;;;;;;1.15;47.61;100146.31;5024538;28;20061;-59
2022/04/08 10:44:33;;;;;;;38.03;3.95;;;;;;;1.12;47.90;100140.22;5024584;28;20069;-58
2022/04/08 10:47:14;;;;;;;31.90;3.63;;;;;;;1.17;48.75;100139.47;5025456;28;20092;-58
2022/04/08 10:49:53;;;;;;;10.70;3.28;;;;;;;1.02;48.38;100113.44;5024810;28;20052;-58
2022/04/08 10:52:25;;;;;;;7.82;3.15;;;;;;;1.14;46.83;100147.13;5024786;28;20088;-58
2022/04/08 10:55:07;;;;;;;4.40;2.60;;;;;;;1.08;47.70;100140.16;5023820;28;20104;-58
2022/04/08 10:57:38;;;;;;;5.45;2.88;;;;;;;1.05;47.41;100144.41;5024688;28;20322;-58
2022/04/08 11:00:11;;;;;;;3.67;2.67;;;;;;;0.97;46.61;100146.78;5024735;28;20163;-58
2022/04/08 11:02:45;;;;;;;5.43;2.88;;;;;;;0.91;46.70;100145.81;5024583;28;20366;-57
2022/04/08 11:05:18;;;;;;;19.15;4.78;;;;;;;0.89;46.68;100147.47;5024677;28;20049;-57
2022/04/08 11:07:50;;;;;;;6.70;2.63;;;;;;;0.82;46.92;100139.66;5024336;28;20064;-58
2022/04/08 11:10:22;;;;;;;6.35;2.70;;;;;;;0.85;46.37;100142.28;5024353;28;20256;-57
2022/04/08 11:12:54;;;;;;;3.58;2.20;;;;;;;0.71;46.90;100123.09;5024527;28;20069;-57
2022/04/08 11:15:27;;;;;;;3.58;2.65;;;;;;;0.69;47.08;100129.91;5024559;28;20054;-58
2022/04/08 11:18:00;;;;;;;6.70;2.95;;;;;;;0.80;47.33;100159.31;5024554;28;20062;-58
2022/04/08 11:20:36;;;;;;;14.40;3.30;;;;;;;0.79;48.18;100152.41;5024228;28;20107;-57
2022/04/08 11:23:08;;;;;;;9.60;2.75;;;;;;;0.75;47.32;100150.63;5024957;28;20125;-57
2022/04/08 11:25:39;;;;;;;4.20;2.47;;;;;;;0.76;48.20;100157.50;5024249;28;20057;-57
2022/04/08 11:28:12;;;;;;;10.25;3.58;;;;;;;0.74;47.94;100154.03;5024203;28;20057;-57
2022/04/08 11:30:43;;;;;;;9.57;4.18;;;;;;;0.73;49.23;100152.31;5024434;28;20049;-59
2022/04/08 11:33:18;;;;;;;15.63;6.55;;;;;;;0.24;51.58;100086.94;5024159;28;20064;-58
2022/04/08 11:35:58;;;;;;;19.90;8.18;;;;;;;0.58;51.42;100146.84;5024017;28;20107;-58
2022/04/08 11:38:33;;;;;;;15.65;6.95;;;;;;;0.51;51.46;100134.66;5024177;28;20080;-58
2022/04/08 11:41:25;;;;;;;9.77;4.88;;;;;;;0.69;51.25;100159.91;5023953;28;20051;-58
2022/04/08 11:43:56;;;;;;;15.13;6.00;;;;;;;0.78;51.49;100155.84;5022702;28;20061;-58
2022/04/08 11:46:27;;;;;;;19.25;6.13;;;;;;;0.89;51.17;100158.63;5023824;28;20054;-59
2022/04/08 11:48:58;;;;;;;16.35;6.18;;;;;;;0.89;51.38;100152.63;5023693;28;20347;-59
2022/04/08 11:51:30;;;;;;;18.10;7.32;;;;;;;0.69;51.19;100124.78;5024046;28;20087;-58
2022/04/08 11:54:04;;;;;;;26.13;9.27;;;;;;;0.81;51.55;100161.03;5023230;28;20083;-58
2022/04/08 11:56:35;;;;;;;31.58;12.43;;;;;;;0.75;51.70;100158.34;5023877;28;20121;-59